sensor_id;sensor_type;location;lat;lon;timestamp;P1;durP1;ratioP1;P2;durP2;ratioP2
25127;SDS011;13107;51.304;6.866;2023-12-20T00:00:10;10.48;;;4.20;;
25127;SDS011;13107;51.304;6.866;2023-12-20T00:04:13;9.48;;;4.05;;
25127;SDS011;13107;51.304;6.866;2023-12-20T00:08:15;10.50;;;5.22;;
25127;SDS011;13107;51.304;6.866;2023-12-20T00:12:17;12.90;;;5.37;;
25127;SDS011;13107;51.304;6.866;2023-12-20T00:16:19;8.55;;;4.93;;
25127;SDS011;13107;51.304;6.866;2023-12-20T00:20:21;9.73;;;5.22;;
25127;SDS011;13107;51.304;6.866;2023-12-20T00:24:23;9.10;;;4.97;;
25127;SDS011;13107;51.304;6.866;2023-12-20T00:28:25;10.07;;;4.65;;
25127;SDS011;13107;51.304;6.866;2023-12-20T00:32:27;11.27;;;5.22;;
25127;SDS011;13107;51.304;6.866;2023-12-20T00:36:29;9.05;;;4.93;;
25127;SDS011;13107;51.304;6.866;2023-12-20T00:40:31;14.60;;;5.28;;
25127;SDS011;13107;51.304;6.866;2023-12-20T00:44:33;8.30;;;4.50;;
25127;SDS011;13107;51.304;6.866;2023-12-20T00:48:35;14.77;;;5.80;;
25127;SDS011;13107;51.304;6.866;2023-12-20T00:52:37;11.25;;;5.47;;
25127;SDS011;13107;51.304;6.866;2023-12-20T00:56:39;12.63;;;5.15;;
25127;SDS011;13107;51.304;6.866;2023-12-20T01:00:40;13.80;;;5.72;;
25127;SDS011;13107;51.304;6.866;2023-12-20T01:04:45;11.40;;;5.82;;
25127;SDS011;13107;51.304;6.866;2023-12-20T01:08:48;11.55;;;5.65;;
25127;SDS011;13107;51.304;6.866;2023-12-20T01:12:49;18.90;;;5.93;;
25127;SDS011;13107;51.304;6.866;2023-12-20T01:16:51;12.23;;;6.18;;
25127;SDS011;13107;51.304;6.866;2023-12-20T01:20:53;10.93;;;6.82;;
25127;SDS011;13107;51.304;6.866;2023-12-20T01:24:56;13.65;;;7.07;;
25127;SDS011;13107;51.304;6.866;2023-12-20T01:28:58;16.12;;;8.05;;
25127;SDS011;13107;51.304;6.866;2023-12-20T01:33:00;17.85;;;7.60;;
25127;SDS011;13107;51.304;6.866;2023-12-20T01:37:02;16.83;;;8.60;;
25127;SDS011;13107;51.304;6.866;2023-12-20T01:41:06;20.67;;;9.38;;
25127;SDS011;13107;51.304;6.866;2023-12-20T01:45:08;17.95;;;11.07;;
25127;SDS011;13107;51.304;6.866;2023-12-20T01:49:10;18.85;;;10.82;;
25127;SDS011;13107;51.304;6.866;2023-12-20T01:53:13;22.17;;;12.18;;
25127;SDS011;13107;51.304;6.866;2023-12-20T01:57:16;18.23;;;10.98;;
25127;SDS011;13107;51.304;6.866;2023-12-20T02:01:18;22.87;;;10.18;;
25127;SDS011;13107;51.304;6.866;2023-12-20T02:05:20;21.67;;;10.93;;
25127;SDS011;13107;51.304;6.866;2023-12-20T02:09:23;17.80;;;10.57;;
25127;SDS011;13107;51.304;6.866;2023-12-20T02:13:25;23.55;;;9.73;;
25127;SDS011;13107;51.304;6.866;2023-12-20T02:17:28;20.88;;;8.82;;
25127;SDS011;13107;51.304;6.866;2023-12-20T02:21:34;25.20;;;8.93;;
25127;SDS011;13107;51.304;6.866;2023-12-20T02:25:36;16.80;;;8.95;;
25127;SDS011;13107;51.304;6.866;2023-12-20T02:29:38;14.82;;;7.07;;
25127;SDS011;13107;51.304;6.866;2023-12-20T02:33:40;18.73;;;7.78;;
25127;SDS011;13107;51.304;6.866;2023-12-20T02:37:43;18.37;;;7.32;;
25127;SDS011;13107;51.304;6.866;2023-12-20T02:41:45;29.15;;;7.43;;
25127;SDS011;13107;51.304;6.866;2023-12-20T02:45:47;19.35;;;8.15;;
25127;SDS011;13107;51.304;6.866;2023-12-20T02:49:49;23.83;;;7.12;;
25127;SDS011;13107;51.304;6.866;2023-12-20T02:53:52;19.55;;;7.10;;
25127;SDS011;13107;51.304;6.866;2023-12-20T02:57:53;17.85;;;6.80;;
25127;SDS011;13107;51.304;6.866;2023-12-20T03:01:55;19.40;;;6.75;;
25127;SDS011;13107;51.304;6.866;2023-12-20T03:05:58;18.42;;;6.22;;
25127;SDS011;13107;51.304;6.866;2023-12-20T03:10:01;16.75;;;5.55;;
25127;SDS011;13107;51.304;6.866;2023-12-20T03:14:20;15.82;;;4.62;;
25127;SDS011;13107;51.304;6.866;2023-12-20T03:18:22;11.02;;;4.00;;
25127;SDS011;13107;51.304;6.866;2023-12-20T03:22:24;13.62;;;4.03;;
25127;SDS011;13107;51.304;6.866;2023-12-20T03:26:26;12.63;;;3.67;;
25127;SDS011;13107;51.304;6.866;2023-12-20T03:30:28;17.23;;;3.80;;
25127;SDS011;13107;51.304;6.866;2023-12-20T03:34:29;12.05;;;3.03;;
25127;SDS011;13107;51.304;6.866;2023-12-20T03:38:31;17.98;;;2.87;;
25127;SDS011;13107;51.304;6.866;2023-12-20T03:42:33;11.63;;;3.10;;
25127;SDS011;13107;51.304;6.866;2023-12-20T03:46:35;13.40;;;2.87;;
25127;SDS011;13107;51.304;6.866;2023-12-20T03:50:37;13.73;;;3.00;;
25127;SDS011;13107;51.304;6.866;2023-12-20T03:54:39;11.55;;;2.47;;
25127;SDS011;13107;51.304;6.866;2023-12-20T03:58:43;9.48;;;2.67;;
25127;SDS011;13107;51.304;6.866;2023-12-20T04:02:45;15.98;;;2.60;;
25127;SDS011;13107;51.304;6.866;2023-12-20T04:06:47;14.77;;;3.10;;
25127;SDS011;13107;51.304;6.866;2023-12-20T04:10:49;15.65;;;2.22;;
25127;SDS011;13107;51.304;6.866;2023-12-20T04:14:51;15.73;;;2.80;;
25127;SDS011;13107;51.304;6.866;2023-12-20T04:18:52;15.48;;;2.65;;
25127;SDS011;13107;51.304;6.866;2023-12-20T04:22:54;10.13;;;2.60;;
25127;SDS011;13107;51.304;6.866;2023-12-20T04:26:56;17.85;;;2.95;;
25127;SDS011;13107;51.304;6.866;2023-12-20T04:30:58;14.57;;;3.03;;
25127;SDS011;13107;51.304;6.866;2023-12-20T04:35:00;17.50;;;3.42;;
25127;SDS011;13107;51.304;6.866;2023-12-20T04:39:02;14.20;;;3.40;;
25127;SDS011;13107;51.304;6.866;2023-12-20T04:43:04;16.73;;;3.58;;
25127;SDS011;13107;51.304;6.866;2023-12-20T04:47:06;16.73;;;4.10;;
25127;SDS011;13107;51.304;6.866;2023-12-20T04:51:07;15.68;;;4.37;;
25127;SDS011;13107;51.304;6.866;2023-12-20T04:55:09;20.45;;;4.30;;
25127;SDS011;13107;51.304;6.866;2023-12-20T04:59:11;17.33;;;4.53;;
25127;SDS011;13107;51.304;6.866;2023-12-20T05:03:13;15.23;;;4.72;;
25127;SDS011;13107;51.304;6.866;2023-12-20T05:07:15;19.37;;;5.05;;
25127;SDS011;13107;51.304;6.866;2023-12-20T05:11:16;19.45;;;5.43;;
25127;SDS011;13107;51.304;6.866;2023-12-20T05:15:18;19.15;;;5.47;;
25127;SDS011;13107;51.304;6.866;2023-12-20T05:19:20;18.58;;;5.57;;
25127;SDS011;13107;51.304;6.866;2023-12-20T05:23:22;14.57;;;5.10;;
25127;SDS011;13107;51.304;6.866;2023-12-20T05:27:23;15.63;;;5.03;;
25127;SDS011;13107;51.304;6.866;2023-12-20T05:31:25;14.68;;;4.82;;
25127;SDS011;13107;51.304;6.866;2023-12-20T05:35:27;19.55;;;5.25;;
25127;SDS011;13107;51.304;6.866;2023-12-20T05:39:29;19.85;;;4.57;;
25127;SDS011;13107;51.304;6.866;2023-12-20T05:43:32;15.05;;;4.18;;
25127;SDS011;13107;51.304;6.866;2023-12-20T05:47:34;18.08;;;4.80;;
25127;SDS011;13107;51.304;6.866;2023-12-20T05:51:35;16.52;;;4.65;;
25127;SDS011;13107;51.304;6.866;2023-12-20T05:55:37;18.08;;;4.70;;
25127;SDS011;13107;51.304;6.866;2023-12-20T05:59:39;20.52;;;5.03;;
25127;SDS011;13107;51.304;6.866;2023-12-20T06:03:41;14.13;;;4.10;;
25127;SDS011;13107;51.304;6.866;2023-12-20T06:07:43;15.65;;;4.47;;
25127;SDS011;13107;51.304;6.866;2023-12-20T06:11:46;18.52;;;4.75;;
25127;SDS011;13107;51.304;6.866;2023-12-20T06:15:48;15.07;;;4.03;;
25127;SDS011;13107;51.304;6.866;2023-12-20T06:19:49;23.70;;;4.40;;
25127;SDS011;13107;51.304;6.866;2023-12-20T06:23:51;26.77;;;4.95;;
25127;SDS011;13107;51.304;6.866;2023-12-20T06:27:53;22.55;;;4.47;;
25127;SDS011;13107;51.304;6.866;2023-12-20T06:31:55;20.37;;;4.65;;
25127;SDS011;13107;51.304;6.866;2023-12-20T06:35:57;20.02;;;4.30;;
25127;SDS011;13107;51.304;6.866;2023-12-20T06:39:58;16.90;;;4.93;;
25127;SDS011;13107;51.304;6.866;2023-12-20T06:44:00;19.05;;;4.95;;
25127;SDS011;13107;51.304;6.866;2023-12-20T06:48:02;14.75;;;5.10;;
25127;SDS011;13107;51.304;6.866;2023-12-20T06:52:05;16.65;;;4.80;;
25127;SDS011;13107;51.304;6.866;2023-12-20T06:56:07;17.33;;;5.20;;
25127;SDS011;13107;51.304;6.866;2023-12-20T07:00:10;21.55;;;5.07;;
25127;SDS011;13107;51.304;6.866;2023-12-20T07:04:13;17.25;;;4.68;;
25127;SDS011;13107;51.304;6.866;2023-12-20T07:08:14;13.52;;;4.80;;
25127;SDS011;13107;51.304;6.866;2023-12-20T07:12:17;23.83;;;5.62;;
25127;SDS011;13107;51.304;6.866;2023-12-20T07:16:20;14.98;;;4.50;;
25127;SDS011;13107;51.304;6.866;2023-12-20T07:20:24;19.02;;;4.68;;
25127;SDS011;13107;51.304;6.866;2023-12-20T07:24:25;16.00;;;4.70;;
25127;SDS011;13107;51.304;6.866;2023-12-20T07:28:27;21.33;;;4.90;;
25127;SDS011;13107;51.304;6.866;2023-12-20T07:32:29;13.60;;;4.50;;
25127;SDS011;13107;51.304;6.866;2023-12-20T07:36:31;17.58;;;4.22;;
25127;SDS011;13107;51.304;6.866;2023-12-20T07:40:32;20.48;;;4.72;;
25127;SDS011;13107;51.304;6.866;2023-12-20T07:44:34;17.48;;;4.80;;
25127;SDS011;13107;51.304;6.866;2023-12-20T07:48:39;15.07;;;4.32;;
25127;SDS011;13107;51.304;6.866;2023-12-20T07:52:44;17.27;;;4.22;;
25127;SDS011;13107;51.304;6.866;2023-12-20T07:56:48;21.08;;;5.05;;
25127;SDS011;13107;51.304;6.866;2023-12-20T08:00:50;20.35;;;4.93;;
25127;SDS011;13107;51.304;6.866;2023-12-20T08:04:52;18.98;;;4.70;;
25127;SDS011;13107;51.304;6.866;2023-12-20T08:08:54;19.42;;;4.82;;
25127;SDS011;13107;51.304;6.866;2023-12-20T08:13:06;21.73;;;5.20;;
25127;SDS011;13107;51.304;6.866;2023-12-20T08:17:09;15.75;;;4.55;;
25127;SDS011;13107;51.304;6.866;2023-12-20T08:21:10;21.08;;;4.53;;
25127;SDS011;13107;51.304;6.866;2023-12-20T08:25:12;19.48;;;4.70;;
25127;SDS011;13107;51.304;6.866;2023-12-20T08:29:16;17.77;;;4.18;;
25127;SDS011;13107;51.304;6.866;2023-12-20T08:33:18;17.60;;;4.57;;
25127;SDS011;13107;51.304;6.866;2023-12-20T08:37:20;18.23;;;4.62;;
25127;SDS011;13107;51.304;6.866;2023-12-20T08:41:22;16.10;;;4.32;;
25127;SDS011;13107;51.304;6.866;2023-12-20T08:45:23;17.45;;;4.32;;
25127;SDS011;13107;51.304;6.866;2023-12-20T08:49:25;21.33;;;4.62;;
25127;SDS011;13107;51.304;6.866;2023-12-20T08:53:29;15.68;;;3.50;;
25127;SDS011;13107;51.304;6.866;2023-12-20T08:57:31;24.05;;;4.68;;
25127;SDS011;13107;51.304;6.866;2023-12-20T09:01:33;18.92;;;4.32;;
25127;SDS011;13107;51.304;6.866;2023-12-20T09:05:35;15.85;;;4.15;;
25127;SDS011;13107;51.304;6.866;2023-12-20T09:09:37;18.73;;;3.90;;
25127;SDS011;13107;51.304;6.866;2023-12-20T09:13:38;18.25;;;3.42;;
25127;SDS011;13107;51.304;6.866;2023-12-20T09:17:40;13.52;;;3.22;;
25127;SDS011;13107;51.304;6.866;2023-12-20T09:21:43;15.75;;;3.00;;
25127;SDS011;13107;51.304;6.866;2023-12-20T09:25:45;15.25;;;3.42;;
25127;SDS011;13107;51.304;6.866;2023-12-20T09:29:46;12.18;;;2.35;;
25127;SDS011;13107;51.304;6.866;2023-12-20T09:33:49;11.82;;;2.35;;
25127;SDS011;13107;51.304;6.866;2023-12-20T09:37:51;14.77;;;3.37;;
25127;SDS011;13107;51.304;6.866;2023-12-20T09:46:05;20.40;;;3.72;;
25127;SDS011;13107;51.304;6.866;2023-12-20T09:50:11;18.85;;;3.10;;
25127;SDS011;13107;51.304;6.866;2023-12-20T09:54:14;16.85;;;3.25;;
25127;SDS011;13107;51.304;6.866;2023-12-20T09:58:18;12.93;;;2.80;;
25127;SDS011;13107;51.304;6.866;2023-12-20T10:02:20;20.08;;;3.10;;
25127;SDS011;13107;51.304;6.866;2023-12-20T10:06:25;11.98;;;2.30;;
25127;SDS011;13107;51.304;6.866;2023-12-20T10:10:27;8.63;;;2.45;;
25127;SDS011;13107;51.304;6.866;2023-12-20T10:14:42;14.98;;;3.40;;
25127;SDS011;13107;51.304;6.866;2023-12-20T10:18:45;12.45;;;2.50;;
25127;SDS011;13107;51.304;6.866;2023-12-20T10:22:46;14.90;;;2.85;;
25127;SDS011;13107;51.304;6.866;2023-12-20T10:27:00;18.05;;;2.70;;
25127;SDS011;13107;51.304;6.866;2023-12-20T10:31:05;11.77;;;2.90;;
25127;SDS011;13107;51.304;6.866;2023-12-20T10:35:07;13.80;;;2.75;;
25127;SDS011;13107;51.304;6.866;2023-12-20T10:39:10;14.40;;;2.92;;
25127;SDS011;13107;51.304;6.866;2023-12-20T10:43:13;15.38;;;3.15;;
25127;SDS011;13107;51.304;6.866;2023-12-20T10:47:16;14.05;;;2.67;;
25127;SDS011;13107;51.304;6.866;2023-12-20T10:51:18;14.85;;;2.90;;
25127;SDS011;13107;51.304;6.866;2023-12-20T10:55:25;15.98;;;3.60;;
25127;SDS011;13107;51.304;6.866;2023-12-20T10:59:28;12.37;;;3.30;;
25127;SDS011;13107;51.304;6.866;2023-12-20T11:03:34;11.52;;;2.47;;
25127;SDS011;13107;51.304;6.866;2023-12-20T11:07:58;17.50;;;3.42;;
25127;SDS011;13107;51.304;6.866;2023-12-20T11:16:27;11.50;;;2.55;;
25127;SDS011;13107;51.304;6.866;2023-12-20T11:20:44;16.07;;;2.93;;
25127;SDS011;13107;51.304;6.866;2023-12-20T11:24:46;15.75;;;2.97;;
25127;SDS011;13107;51.304;6.866;2023-12-20T11:28:49;13.30;;;2.47;;
25127;SDS011;13107;51.304;6.866;2023-12-20T11:32:50;19.12;;;3.20;;
25127;SDS011;13107;51.304;6.866;2023-12-20T11:37:02;11.88;;;2.70;;
25127;SDS011;13107;51.304;6.866;2023-12-20T11:41:07;9.80;;;2.60;;
25127;SDS011;13107;51.304;6.866;2023-12-20T11:45:15;10.77;;;2.80;;
25127;SDS011;13107;51.304;6.866;2023-12-20T11:49:24;9.48;;;2.78;;
25127;SDS011;13107;51.304;6.866;2023-12-20T11:53:26;17.23;;;3.30;;
25127;SDS011;13107;51.304;6.866;2023-12-20T11:57:28;13.07;;;2.50;;
25127;SDS011;13107;51.304;6.866;2023-12-20T12:01:31;18.55;;;2.90;;
25127;SDS011;13107;51.304;6.866;2023-12-20T12:05:33;15.98;;;2.90;;
25127;SDS011;13107;51.304;6.866;2023-12-20T12:09:35;11.65;;;2.67;;
25127;SDS011;13107;51.304;6.866;2023-12-20T12:13:37;7.97;;;2.12;;
25127;SDS011;13107;51.304;6.866;2023-12-20T12:17:38;10.57;;;2.55;;
25127;SDS011;13107;51.304;6.866;2023-12-20T12:21:40;14.52;;;3.10;;
25127;SDS011;13107;51.304;6.866;2023-12-20T12:25:42;14.85;;;2.70;;
25127;SDS011;13107;51.304;6.866;2023-12-20T12:30:02;7.87;;;2.50;;
25127;SDS011;13107;51.304;6.866;2023-12-20T12:34:08;14.65;;;2.87;;
25127;SDS011;13107;51.304;6.866;2023-12-20T12:38:10;15.25;;;2.83;;
25127;SDS011;13107;51.304;6.866;2023-12-20T12:42:12;17.40;;;3.58;;
25127;SDS011;13107;51.304;6.866;2023-12-20T12:46:14;11.23;;;2.92;;
25127;SDS011;13107;51.304;6.866;2023-12-20T12:50:16;17.62;;;3.15;;
25127;SDS011;13107;51.304;6.866;2023-12-20T12:54:18;15.65;;;3.33;;
25127;SDS011;13107;51.304;6.866;2023-12-20T12:58:20;12.43;;;3.20;;
25127;SDS011;13107;51.304;6.866;2023-12-20T13:02:23;13.23;;;3.50;;
25127;SDS011;13107;51.304;6.866;2023-12-20T13:06:25;13.35;;;3.00;;
25127;SDS011;13107;51.304;6.866;2023-12-20T13:10:26;12.20;;;3.20;;
25127;SDS011;13107;51.304;6.866;2023-12-20T13:14:28;15.65;;;3.62;;
25127;SDS011;13107;51.304;6.866;2023-12-20T13:18:31;18.48;;;3.67;;
25127;SDS011;13107;51.304;6.866;2023-12-20T13:22:33;14.82;;;3.90;;
25127;SDS011;13107;51.304;6.866;2023-12-20T13:26:34;11.73;;;3.65;;
25127;SDS011;13107;51.304;6.866;2023-12-20T13:30:37;14.55;;;3.92;;
25127;SDS011;13107;51.304;6.866;2023-12-20T13:34:40;16.40;;;3.70;;
25127;SDS011;13107;51.304;6.866;2023-12-20T13:38:42;15.23;;;4.25;;
25127;SDS011;13107;51.304;6.866;2023-12-20T13:42:44;14.15;;;4.47;;
25127;SDS011;13107;51.304;6.866;2023-12-20T13:46:46;13.48;;;4.18;;
25127;SDS011;13107;51.304;6.866;2023-12-20T13:50:50;13.20;;;4.18;;
25127;SDS011;13107;51.304;6.866;2023-12-20T13:54:52;10.35;;;4.78;;
25127;SDS011;13107;51.304;6.866;2023-12-20T13:58:54;19.33;;;4.90;;
25127;SDS011;13107;51.304;6.866;2023-12-20T14:02:56;12.52;;;4.65;;
25127;SDS011;13107;51.304;6.866;2023-12-20T14:06:58;14.60;;;5.40;;
25127;SDS011;13107;51.304;6.866;2023-12-20T14:10:59;14.50;;;5.53;;
25127;SDS011;13107;51.304;6.866;2023-12-20T14:15:02;15.48;;;4.43;;
25127;SDS011;13107;51.304;6.866;2023-12-20T14:19:04;12.55;;;5.10;;
25127;SDS011;13107;51.304;6.866;2023-12-20T14:23:08;15.52;;;4.12;;
25127;SDS011;13107;51.304;6.866;2023-12-20T14:27:13;13.00;;;4.57;;
25127;SDS011;13107;51.304;6.866;2023-12-20T14:31:15;16.12;;;3.92;;
25127;SDS011;13107;51.304;6.866;2023-12-20T14:35:17;15.65;;;4.50;;
25127;SDS011;13107;51.304;6.866;2023-12-20T14:39:18;20.95;;;4.45;;
25127;SDS011;13107;51.304;6.866;2023-12-20T14:43:20;12.43;;;4.05;;
25127;SDS011;13107;51.304;6.866;2023-12-20T14:47:23;10.13;;;3.62;;
25127;SDS011;13107;51.304;6.866;2023-12-20T14:51:26;14.57;;;3.67;;
25127;SDS011;13107;51.304;6.866;2023-12-20T14:55:28;15.82;;;3.87;;
25127;SDS011;13107;51.304;6.866;2023-12-20T14:59:31;14.30;;;4.35;;
25127;SDS011;13107;51.304;6.866;2023-12-20T15:03:33;12.13;;;3.92;;
25127;SDS011;13107;51.304;6.866;2023-12-20T15:07:35;12.48;;;3.83;;
25127;SDS011;13107;51.304;6.866;2023-12-20T15:11:38;15.75;;;4.30;;
25127;SDS011;13107;51.304;6.866;2023-12-20T15:15:39;14.25;;;4.00;;
25127;SDS011;13107;51.304;6.866;2023-12-20T15:19:43;12.25;;;3.65;;
25127;SDS011;13107;51.304;6.866;2023-12-20T15:23:45;16.00;;;4.37;;
25127;SDS011;13107;51.304;6.866;2023-12-20T15:27:54;15.10;;;4.40;;
25127;SDS011;13107;51.304;6.866;2023-12-20T15:31:56;10.80;;;3.67;;
25127;SDS011;13107;51.304;6.866;2023-12-20T15:35:58;10.45;;;4.03;;
25127;SDS011;13107;51.304;6.866;2023-12-20T15:39:59;8.05;;;3.83;;
25127;SDS011;13107;51.304;6.866;2023-12-20T15:44:06;16.55;;;4.32;;
25127;SDS011;13107;51.304;6.866;2023-12-20T15:48:08;19.02;;;4.37;;
25127;SDS011;13107;51.304;6.866;2023-12-20T15:52:12;14.23;;;4.40;;
25127;SDS011;13107;51.304;6.866;2023-12-20T15:56:15;13.80;;;3.87;;
25127;SDS011;13107;51.304;6.866;2023-12-20T16:00:19;16.25;;;4.60;;
25127;SDS011;13107;51.304;6.866;2023-12-20T16:04:21;13.62;;;3.80;;
25127;SDS011;13107;51.304;6.866;2023-12-20T16:08:23;12.73;;;4.43;;
25127;SDS011;13107;51.304;6.866;2023-12-20T16:12:25;17.80;;;5.10;;
25127;SDS011;13107;51.304;6.866;2023-12-20T16:16:27;18.77;;;4.28;;
25127;SDS011;13107;51.304;6.866;2023-12-20T16:20:28;14.27;;;4.37;;
25127;SDS011;13107;51.304;6.866;2023-12-20T16:24:30;9.60;;;4.07;;
25127;SDS011;13107;51.304;6.866;2023-12-20T16:28:33;14.57;;;4.68;;
25127;SDS011;13107;51.304;6.866;2023-12-20T16:32:35;14.20;;;4.60;;
25127;SDS011;13107;51.304;6.866;2023-12-20T16:36:53;15.25;;;5.07;;
25127;SDS011;13107;51.304;6.866;2023-12-20T16:40:56;14.57;;;4.55;;
25127;SDS011;13107;51.304;6.866;2023-12-20T16:44:57;13.30;;;4.53;;
25127;SDS011;13107;51.304;6.866;2023-12-20T16:48:59;17.02;;;4.62;;
25127;SDS011;13107;51.304;6.866;2023-12-20T16:53:01;14.07;;;4.47;;
25127;SDS011;13107;51.304;6.866;2023-12-20T16:57:03;10.90;;;3.92;;
25127;SDS011;13107;51.304;6.866;2023-12-20T17:01:05;13.43;;;5.10;;
25127;SDS011;13107;51.304;6.866;2023-12-20T17:05:09;15.50;;;4.35;;
25127;SDS011;13107;51.304;6.866;2023-12-20T17:09:11;13.00;;;4.57;;
25127;SDS011;13107;51.304;6.866;2023-12-20T17:13:13;13.35;;;4.93;;
25127;SDS011;13107;51.304;6.866;2023-12-20T17:17:15;13.98;;;5.18;;
25127;SDS011;13107;51.304;6.866;2023-12-20T17:21:17;18.10;;;5.78;;
25127;SDS011;13107;51.304;6.866;2023-12-20T17:25:19;10.80;;;5.28;;
25127;SDS011;13107;51.304;6.866;2023-12-20T17:29:22;16.65;;;5.28;;
25127;SDS011;13107;51.304;6.866;2023-12-20T17:33:24;14.25;;;5.03;;
25127;SDS011;13107;51.304;6.866;2023-12-20T17:37:26;14.30;;;5.40;;
25127;SDS011;13107;51.304;6.866;2023-12-20T17:41:28;17.27;;;5.32;;
25127;SDS011;13107;51.304;6.866;2023-12-20T17:45:29;13.25;;;4.90;;
25127;SDS011;13107;51.304;6.866;2023-12-20T17:49:31;16.58;;;5.55;;
25127;SDS011;13107;51.304;6.866;2023-12-20T17:53:33;16.62;;;5.45;;
25127;SDS011;13107;51.304;6.866;2023-12-20T17:57:34;15.98;;;6.07;;
25127;SDS011;13107;51.304;6.866;2023-12-20T18:01:36;17.12;;;5.60;;
25127;SDS011;13107;51.304;6.866;2023-12-20T18:05:38;16.40;;;6.05;;
25127;SDS011;13107;51.304;6.866;2023-12-20T18:09:40;13.25;;;5.75;;
25127;SDS011;13107;51.304;6.866;2023-12-20T18:13:42;17.23;;;5.95;;
25127;SDS011;13107;51.304;6.866;2023-12-20T18:17:44;14.98;;;6.10;;
25127;SDS011;13107;51.304;6.866;2023-12-20T18:21:46;11.12;;;5.40;;
25127;SDS011;13107;51.304;6.866;2023-12-20T18:25:47;13.80;;;5.70;;
25127;SDS011;13107;51.304;6.866;2023-12-20T18:29:49;14.80;;;5.80;;
25127;SDS011;13107;51.304;6.866;2023-12-20T18:33:53;19.10;;;6.07;;
25127;SDS011;13107;51.304;6.866;2023-12-20T18:37:55;14.27;;;5.40;;
25127;SDS011;13107;51.304;6.866;2023-12-20T18:41:56;20.33;;;6.00;;
25127;SDS011;13107;51.304;6.866;2023-12-20T18:45:58;15.50;;;5.50;;
25127;SDS011;13107;51.304;6.866;2023-12-20T18:50:00;14.95;;;5.70;;
25127;SDS011;13107;51.304;6.866;2023-12-20T18:54:04;13.07;;;5.37;;
25127;SDS011;13107;51.304;6.866;2023-12-20T18:58:06;16.95;;;5.45;;
25127;SDS011;13107;51.304;6.866;2023-12-20T19:02:07;13.80;;;5.25;;
25127;SDS011;13107;51.304;6.866;2023-12-20T19:06:11;17.62;;;6.22;;
25127;SDS011;13107;51.304;6.866;2023-12-20T19:10:13;14.77;;;5.68;;
25127;SDS011;13107;51.304;6.866;2023-12-20T19:14:15;17.42;;;5.12;;
25127;SDS011;13107;51.304;6.866;2023-12-20T19:18:17;18.25;;;5.07;;
25127;SDS011;13107;51.304;6.866;2023-12-20T19:22:19;14.25;;;4.60;;
25127;SDS011;13107;51.304;6.866;2023-12-20T19:26:20;17.65;;;4.90;;
25127;SDS011;13107;51.304;6.866;2023-12-20T19:30:22;13.45;;;4.68;;
25127;SDS011;13107;51.304;6.866;2023-12-20T19:34:24;15.98;;;4.78;;
25127;SDS011;13107;51.304;6.866;2023-12-20T19:38:26;12.45;;;4.68;;
25127;SDS011;13107;51.304;6.866;2023-12-20T19:42:27;15.60;;;4.95;;
25127;SDS011;13107;51.304;6.866;2023-12-20T19:46:31;12.13;;;4.93;;
25127;SDS011;13107;51.304;6.866;2023-12-20T19:50:33;19.27;;;5.68;;
25127;SDS011;13107;51.304;6.866;2023-12-20T19:54:35;15.68;;;5.82;;
25127;SDS011;13107;51.304;6.866;2023-12-20T19:58:37;14.87;;;5.40;;
25127;SDS011;13107;51.304;6.866;2023-12-20T20:02:39;14.50;;;4.90;;
25127;SDS011;13107;51.304;6.866;2023-12-20T20:06:40;16.55;;;5.10;;
25127;SDS011;13107;51.304;6.866;2023-12-20T20:10:42;9.63;;;4.57;;
25127;SDS011;13107;51.304;6.866;2023-12-20T20:14:44;10.95;;;5.00;;
25127;SDS011;13107;51.304;6.866;2023-12-20T20:18:46;15.20;;;5.40;;
25127;SDS011;13107;51.304;6.866;2023-12-20T20:22:47;12.27;;;4.68;;
25127;SDS011;13107;51.304;6.866;2023-12-20T20:26:49;12.40;;;5.35;;
25127;SDS011;13107;51.304;6.866;2023-12-20T20:30:52;12.20;;;5.00;;
25127;SDS011;13107;51.304;6.866;2023-12-20T20:34:54;15.95;;;5.20;;
25127;SDS011;13107;51.304;6.866;2023-12-20T20:38:55;11.35;;;5.28;;
25127;SDS011;13107;51.304;6.866;2023-12-20T20:42:57;10.80;;;4.87;;
25127;SDS011;13107;51.304;6.866;2023-12-20T20:46:59;8.07;;;5.75;;
25127;SDS011;13107;51.304;6.866;2023-12-20T20:51:01;11.68;;;5.80;;
25127;SDS011;13107;51.304;6.866;2023-12-20T20:55:04;16.90;;;5.85;;
25127;SDS011;13107;51.304;6.866;2023-12-20T20:59:06;10.68;;;5.70;;
25127;SDS011;13107;51.304;6.866;2023-12-20T21:03:08;13.85;;;5.93;;
25127;SDS011;13107;51.304;6.866;2023-12-20T21:07:10;17.27;;;5.47;;
25127;SDS011;13107;51.304;6.866;2023-12-20T21:11:12;11.05;;;5.70;;
25127;SDS011;13107;51.304;6.866;2023-12-20T21:15:16;10.57;;;5.75;;
25127;SDS011;13107;51.304;6.866;2023-12-20T21:19:17;12.37;;;6.28;;
25127;SDS011;13107;51.304;6.866;2023-12-20T21:23:27;10.05;;;5.22;;
25127;SDS011;13107;51.304;6.866;2023-12-20T21:27:29;15.38;;;7.00;;
25127;SDS011;13107;51.304;6.866;2023-12-20T21:31:33;13.32;;;5.80;;
25127;SDS011;13107;51.304;6.866;2023-12-20T21:35:35;13.27;;;6.00;;
25127;SDS011;13107;51.304;6.866;2023-12-20T21:39:37;10.60;;;5.47;;
25127;SDS011;13107;51.304;6.866;2023-12-20T21:43:40;13.02;;;5.80;;
25127;SDS011;13107;51.304;6.866;2023-12-20T21:47:42;13.48;;;6.00;;
25127;SDS011;13107;51.304;6.866;2023-12-20T21:51:44;16.42;;;6.53;;
25127;SDS011;13107;51.304;6.866;2023-12-20T21:55:46;10.73;;;6.22;;
25127;SDS011;13107;51.304;6.866;2023-12-20T21:59:48;10.38;;;4.90;;
25127;SDS011;13107;51.304;6.866;2023-12-20T22:03:49;16.33;;;6.50;;
25127;SDS011;13107;51.304;6.866;2023-12-20T22:07:51;11.70;;;6.18;;
25127;SDS011;13107;51.304;6.866;2023-12-20T22:11:53;12.05;;;5.90;;
25127;SDS011;13107;51.304;6.866;2023-12-20T22:15:55;10.75;;;5.90;;
25127;SDS011;13107;51.304;6.866;2023-12-20T22:19:57;10.75;;;5.18;;
25127;SDS011;13107;51.304;6.866;2023-12-20T22:24:00;10.50;;;5.50;;
25127;SDS011;13107;51.304;6.866;2023-12-20T22:28:02;10.13;;;5.32;;
25127;SDS011;13107;51.304;6.866;2023-12-20T22:32:04;14.52;;;6.82;;
25127;SDS011;13107;51.304;6.866;2023-12-20T22:36:09;13.55;;;5.80;;
25127;SDS011;13107;51.304;6.866;2023-12-20T22:40:12;13.65;;;5.50;;
25127;SDS011;13107;51.304;6.866;2023-12-20T22:44:15;10.93;;;5.80;;
25127;SDS011;13107;51.304;6.866;2023-12-20T22:48:17;10.98;;;5.55;;
25127;SDS011;13107;51.304;6.866;2023-12-20T22:52:19;7.53;;;5.28;;
25127;SDS011;13107;51.304;6.866;2023-12-20T22:56:25;8.88;;;4.62;;
25127;SDS011;13107;51.304;6.866;2023-12-20T23:00:28;11.18;;;5.50;;
25127;SDS011;13107;51.304;6.866;2023-12-20T23:13:48;9.70;;;5.72;;
25127;SDS011;13107;51.304;6.866;2023-12-20T23:17:50;10.95;;;4.25;;
25127;SDS011;13107;51.304;6.866;2023-12-20T23:21:54;7.53;;;4.43;;
25127;SDS011;13107;51.304;6.866;2023-12-20T23:25:57;7.65;;;4.37;;
25127;SDS011;13107;51.304;6.866;2023-12-20T23:29:59;8.57;;;4.40;;
25127;SDS011;13107;51.304;6.866;2023-12-20T23:34:01;10.68;;;5.32;;
25127;SDS011;13107;51.304;6.866;2023-12-20T23:38:03;7.72;;;4.40;;
25127;SDS011;13107;51.304;6.866;2023-12-20T23:42:05;10.02;;;4.37;;
25127;SDS011;13107;51.304;6.866;2023-12-20T23:46:07;9.32;;;4.68;;
25127;SDS011;13107;51.304;6.866;2023-12-20T23:50:09;9.10;;;4.57;;
25127;SDS011;13107;51.304;6.866;2023-12-20T23:54:12;5.60;;;4.18;;
25127;SDS011;13107;51.304;6.866;2023-12-20T23:58:14;7.95;;;4.30;;
